sensor_id;sensor_type;location;lat;lon;timestamp;temperature;humidity
35395;DHT22;21500;45.308;9.488;2022-09-14T00:01:14;23.10;99.90
35395;DHT22;21500;45.308;9.488;2022-09-14T00:03:40;23.10;99.90
35395;DHT22;21500;45.308;9.488;2022-09-14T00:06:08;23.10;99.90
35395;DHT22;21500;45.308;9.488;2022-09-14T00:08:34;23.10;99.90
35395;DHT22;21500;45.308;9.488;2022-09-14T00:11:09;23.10;99.90
35395;DHT22;21500;45.308;9.488;2022-09-14T00:13:37;23.10;99.90
35395;DHT22;21500;45.308;9.488;2022-09-14T00:16:05;23.20;99.90
35395;DHT22;21500;45.308;9.488;2022-09-14T00:18:33;23.10;99.90
35395;DHT22;21500;45.308;9.488;2022-09-14T00:21:01;23.10;99.90
35395;DHT22;21500;45.308;9.488;2022-09-14T00:23:27;23.10;99.90
35395;DHT22;21500;45.308;9.488;2022-09-14T00:25:53;23.10;99.90
35395;DHT22;21500;45.308;9.488;2022-09-14T00:28:19;23.10;99.90
35395;DHT22;21500;45.308;9.488;2022-09-14T00:30:45;23.10;99.90
35395;DHT22;21500;45.308;9.488;2022-09-14T00:33:12;23.10;99.90
35395;DHT22;21500;45.308;9.488;2022-09-14T00:35:38;23.10;99.90
35395;DHT22;21500;45.308;9.488;2022-09-14T00:38:04;23.10;99.90
35395;DHT22;21500;45.308;9.488;2022-09-14T00:40:31;23.00;99.90
35395;DHT22;21500;45.308;9.488;2022-09-14T00:42:56;23.00;99.90
35395;DHT22;21500;45.308;9.488;2022-09-14T00:45:24;23.00;99.90
35395;DHT22;21500;45.308;9.488;2022-09-14T00:47:51;23.00;99.90
35395;DHT22;21500;45.308;9.488;2022-09-14T00:50:18;22.90;99.90
35395;DHT22;21500;45.308;9.488;2022-09-14T00:52:47;22.80;99.90
35395;DHT22;21500;45.308;9.488;2022-09-14T00:55:17;22.80;99.90
35395;DHT22;21500;45.308;9.488;2022-09-14T00:57:48;22.80;99.90
35395;DHT22;21500;45.308;9.488;2022-09-14T01:00:19;22.80;99.90
35395;DHT22;21500;45.308;9.488;2022-09-14T01:02:45;22.80;99.90
35395;DHT22;21500;45.308;9.488;2022-09-14T01:05:11;22.80;99.90
35395;DHT22;21500;45.308;9.488;2022-09-14T01:18:46;22.80;99.90
35395;DHT22;21500;45.308;9.488;2022-09-14T01:21:43;22.80;99.90
35395;DHT22;21500;45.308;9.488;2022-09-14T01:30:05;22.60;99.90
35395;DHT22;21500;45.308;9.488;2022-09-14T01:32:44;22.70;99.90
35395;DHT22;21500;45.308;9.488;2022-09-14T01:35:29;22.90;99.90
35395;DHT22;21500;45.308;9.488;2022-09-14T01:38:03;22.90;99.90
35395;DHT22;21500;45.308;9.488;2022-09-14T01:40:40;22.80;99.90
35395;DHT22;21500;45.308;9.488;2022-09-14T01:43:15;22.70;99.90
35395;DHT22;21500;45.308;9.488;2022-09-14T01:45:50;22.60;99.90
35395;DHT22;21500;45.308;9.488;2022-09-14T01:48:20;22.60;99.90
35395;DHT22;21500;45.308;9.488;2022-09-14T01:50:52;22.70;99.90
35395;DHT22;21500;45.308;9.488;2022-09-14T01:53:35;22.70;99.90
35395;DHT22;21500;45.308;9.488;2022-09-14T01:56:22;22.70;99.90
35395;DHT22;21500;45.308;9.488;2022-09-14T02:01:32;22.60;99.90
35395;DHT22;21500;45.308;9.488;2022-09-14T02:04:02;22.70;99.90
35395;DHT22;21500;45.308;9.488;2022-09-14T02:06:38;22.70;99.90
35395;DHT22;21500;45.308;9.488;2022-09-14T02:09:09;22.70;99.90
35395;DHT22;21500;45.308;9.488;2022-09-14T02:11:36;22.60;99.90
35395;DHT22;21500;45.308;9.488;2022-09-14T02:14:03;22.60;99.90
35395;DHT22;21500;45.308;9.488;2022-09-14T02:16:29;22.50;99.90
35395;DHT22;21500;45.308;9.488;2022-09-14T02:18:55;22.50;99.90
35395;DHT22;21500;45.308;9.488;2022-09-14T02:21:26;22.50;99.90
35395;DHT22;21500;45.308;9.488;2022-09-14T02:23:52;22.50;99.90
35395;DHT22;21500;45.308;9.488;2022-09-14T02:26:20;22.40;99.90
35395;DHT22;21500;45.308;9.488;2022-09-14T02:28:46;22.40;99.90
35395;DHT22;21500;45.308;9.488;2022-09-14T02:34:09;22.60;99.90
35395;DHT22;21500;45.308;9.488;2022-09-14T02:36:50;22.50;99.90
35395;DHT22;21500;45.308;9.488;2022-09-14T02:45:04;22.40;99.90
35395;DHT22;21500;45.308;9.488;2022-09-14T02:50:22;22.40;99.90
35395;DHT22;21500;45.308;9.488;2022-09-14T02:52:56;22.30;99.90
35395;DHT22;21500;45.308;9.488;2022-09-14T02:55:28;22.20;99.90
35395;DHT22;21500;45.308;9.488;2022-09-14T03:00:38;22.10;99.90
35395;DHT22;21500;45.308;9.488;2022-09-14T03:03:06;22.20;99.90
35395;DHT22;21500;45.308;9.488;2022-09-14T03:05:33;22.30;99.90
35395;DHT22;21500;45.308;9.488;2022-09-14T03:07:59;22.30;99.90
35395;DHT22;21500;45.308;9.488;2022-09-14T03:10:26;22.40;99.90
35395;DHT22;21500;45.308;9.488;2022-09-14T03:12:52;22.40;99.90
35395;DHT22;21500;45.308;9.488;2022-09-14T03:15:18;22.50;99.90
35395;DHT22;21500;45.308;9.488;2022-09-14T03:17:45;22.40;99.90
35395;DHT22;21500;45.308;9.488;2022-09-14T03:20:13;22.40;99.90
35395;DHT22;21500;45.308;9.488;2022-09-14T03:22:39;22.40;99.90
35395;DHT22;21500;45.308;9.488;2022-09-14T03:25:05;22.50;99.90
35395;DHT22;21500;45.308;9.488;2022-09-14T03:27:31;22.50;99.90
35395;DHT22;21500;45.308;9.488;2022-09-14T03:29:57;22.40;99.90
35395;DHT22;21500;45.308;9.488;2022-09-14T03:32:22;22.40;99.90
35395;DHT22;21500;45.308;9.488;2022-09-14T03:34:48;22.50;99.90
35395;DHT22;21500;45.308;9.488;2022-09-14T03:37:14;22.50;99.90
35395;DHT22;21500;45.308;9.488;2022-09-14T03:39:40;22.50;99.90
35395;DHT22;21500;45.308;9.488;2022-09-14T03:42:05;22.60;99.90
35395;DHT22;21500;45.308;9.488;2022-09-14T03:44:31;22.50;99.90
35395;DHT22;21500;45.308;9.488;2022-09-14T03:46:57;22.60;99.90
35395;DHT22;21500;45.308;9.488;2022-09-14T03:49:23;22.60;99.90
35395;DHT22;21500;45.308;9.488;2022-09-14T03:51:48;22.60;99.90
35395;DHT22;21500;45.308;9.488;2022-09-14T03:54:14;22.60;99.90
35395;DHT22;21500;45.308;9.488;2022-09-14T03:56:40;22.60;99.90
35395;DHT22;21500;45.308;9.488;2022-09-14T03:59:08;22.50;99.90
35395;DHT22;21500;45.308;9.488;2022-09-14T04:01:34;22.60;99.90
35395;DHT22;21500;45.308;9.488;2022-09-14T04:04:00;22.60;99.90
35395;DHT22;21500;45.308;9.488;2022-09-14T04:06:26;22.70;99.90
35395;DHT22;21500;45.308;9.488;2022-09-14T04:08:51;22.70;99.90
35395;DHT22;21500;45.308;9.488;2022-09-14T04:11:19;22.70;99.90
35395;DHT22;21500;45.308;9.488;2022-09-14T04:13:47;22.70;99.90
35395;DHT22;21500;45.308;9.488;2022-09-14T04:16:13;22.70;99.90
35395;DHT22;21500;45.308;9.488;2022-09-14T04:18:39;22.60;99.90
35395;DHT22;21500;45.308;9.488;2022-09-14T04:21:12;22.60;99.90
35395;DHT22;21500;45.308;9.488;2022-09-14T04:23:38;22.70;99.90
35395;DHT22;21500;45.308;9.488;2022-09-14T04:26:16;22.60;99.90
35395;DHT22;21500;45.308;9.488;2022-09-14T04:28:43;22.60;99.90
35395;DHT22;21500;45.308;9.488;2022-09-14T04:31:10;22.70;99.90
35395;DHT22;21500;45.308;9.488;2022-09-14T04:33:37;22.70;99.90
35395;DHT22;21500;45.308;9.488;2022-09-14T04:36:23;22.70;99.90
35395;DHT22;21500;45.308;9.488;2022-09-14T04:38:54;22.70;99.90
35395;DHT22;21500;45.308;9.488;2022-09-14T04:41:21;22.60;99.90
35395;DHT22;21500;45.308;9.488;2022-09-14T04:43:48;22.70;99.90
35395;DHT22;21500;45.308;9.488;2022-09-14T04:46:20;22.70;99.90
35395;DHT22;21500;45.308;9.488;2022-09-14T04:48:47;22.70;99.90
35395;DHT22;21500;45.308;9.488;2022-09-14T04:51:15;22.70;99.90
35395;DHT22;21500;45.308;9.488;2022-09-14T04:53:42;22.80;99.90
35395;DHT22;21500;45.308;9.488;2022-09-14T04:56:10;22.80;99.90
35395;DHT22;21500;45.308;9.488;2022-09-14T04:58:38;22.80;99.90
35395;DHT22;21500;45.308;9.488;2022-09-14T05:01:08;22.80;99.90
35395;DHT22;21500;45.308;9.488;2022-09-14T05:03:35;22.90;99.90
35395;DHT22;21500;45.308;9.488;2022-09-14T05:06:04;22.90;99.90
35395;DHT22;21500;45.308;9.488;2022-09-14T05:08:32;22.80;99.90
35395;DHT22;21500;45.308;9.488;2022-09-14T05:10:58;22.80;99.90
35395;DHT22;21500;45.308;9.488;2022-09-14T05:13:24;22.80;99.90
35395;DHT22;21500;45.308;9.488;2022-09-14T05:15:51;22.90;99.90
35395;DHT22;21500;45.308;9.488;2022-09-14T05:18:17;23.00;99.90
35395;DHT22;21500;45.308;9.488;2022-09-14T05:20:43;22.90;99.90
35395;DHT22;21500;45.308;9.488;2022-09-14T05:23:09;22.80;99.90
35395;DHT22;21500;45.308;9.488;2022-09-14T05:25:34;22.90;99.90
35395;DHT22;21500;45.308;9.488;2022-09-14T05:28:00;22.80;99.90
35395;DHT22;21500;45.308;9.488;2022-09-14T05:30:26;22.90;99.90
35395;DHT22;21500;45.308;9.488;2022-09-14T05:32:52;22.90;99.90
35395;DHT22;21500;45.308;9.488;2022-09-14T05:35:39;22.80;99.90
35395;DHT22;21500;45.308;9.488;2022-09-14T05:39:35;22.90;99.90
35395;DHT22;21500;45.308;9.488;2022-09-14T16:55:02;26.20;99.90
35395;DHT22;21500;45.308;9.488;2022-09-14T16:57:28;26.20;99.90
35395;DHT22;21500;45.308;9.488;2022-09-14T16:59:54;26.20;99.90
35395;DHT22;21500;45.308;9.488;2022-09-14T17:02:20;26.20;99.90
35395;DHT22;21500;45.308;9.488;2022-09-14T17:04:46;26.10;99.90
35395;DHT22;21500;45.308;9.488;2022-09-14T17:07:12;26.20;99.90
35395;DHT22;21500;45.308;9.488;2022-09-14T17:09:37;26.10;99.90
35395;DHT22;21500;45.308;9.488;2022-09-14T17:12:05;26.20;99.90
35395;DHT22;21500;45.308;9.488;2022-09-14T17:14:32;26.10;99.90
35395;DHT22;21500;45.308;9.488;2022-09-14T17:16:58;26.10;99.90
35395;DHT22;21500;45.308;9.488;2022-09-14T17:19:25;26.10;99.90
35395;DHT22;21500;45.308;9.488;2022-09-14T17:21:51;26.00;99.90
35395;DHT22;21500;45.308;9.488;2022-09-14T17:24:19;26.10;99.90
35395;DHT22;21500;45.308;9.488;2022-09-14T17:26:45;26.10;99.90
35395;DHT22;21500;45.308;9.488;2022-09-14T17:29:11;26.00;99.90
35395;DHT22;21500;45.308;9.488;2022-09-14T17:31:39;26.00;99.90
35395;DHT22;21500;45.308;9.488;2022-09-14T17:34:14;25.90;99.90
35395;DHT22;21500;45.308;9.488;2022-09-14T17:36:41;25.90;99.90
35395;DHT22;21500;45.308;9.488;2022-09-14T17:39:08;25.80;99.90
35395;DHT22;21500;45.308;9.488;2022-09-14T17:41:34;25.90;99.90
35395;DHT22;21500;45.308;9.488;2022-09-14T17:44:04;25.90;99.90
35395;DHT22;21500;45.308;9.488;2022-09-14T17:51:49;25.70;99.90
35395;DHT22;21500;45.308;9.488;2022-09-14T17:54:15;25.80;99.90
35395;DHT22;21500;45.308;9.488;2022-09-14T17:56:42;25.70;99.90
35395;DHT22;21500;45.308;9.488;2022-09-14T17:59:16;25.70;99.90
35395;DHT22;21500;45.308;9.488;2022-09-14T18:01:44;25.60;99.90
35395;DHT22;21500;45.308;9.488;2022-09-14T18:04:12;25.60;99.90
35395;DHT22;21500;45.308;9.488;2022-09-14T18:06:41;25.60;99.90
35395;DHT22;21500;45.308;9.488;2022-09-14T18:09:17;25.60;99.90
35395;DHT22;21500;45.308;9.488;2022-09-14T18:11:43;25.60;99.90
35395;DHT22;21500;45.308;9.488;2022-09-14T18:14:12;25.60;99.90
35395;DHT22;21500;45.308;9.488;2022-09-14T18:16:38;25.50;99.90
35395;DHT22;21500;45.308;9.488;2022-09-14T18:19:04;25.50;99.90
35395;DHT22;21500;45.308;9.488;2022-09-14T18:21:30;25.50;99.90
35395;DHT22;21500;45.308;9.488;2022-09-14T18:23:56;25.50;99.90
35395;DHT22;21500;45.308;9.488;2022-09-14T19:04:14;25.00;99.90
35395;DHT22;21500;45.308;9.488;2022-09-14T19:06:47;25.10;99.90
35395;DHT22;21500;45.308;9.488;2022-09-14T19:09:13;25.10;99.90
35395;DHT22;21500;45.308;9.488;2022-09-14T19:11:40;25.10;99.90
35395;DHT22;21500;45.308;9.488;2022-09-14T19:50:33;24.70;99.90
35395;DHT22;21500;45.308;9.488;2022-09-14T19:57:31;24.80;99.90
35395;DHT22;21500;45.308;9.488;2022-09-14T20:14:53;24.70;99.90
35395;DHT22;21500;45.308;9.488;2022-09-14T20:17:55;24.60;99.90
35395;DHT22;21500;45.308;9.488;2022-09-14T20:21:20;24.60;99.90
35395;DHT22;21500;45.308;9.488;2022-09-14T20:26:56;24.50;99.90
35395;DHT22;21500;45.308;9.488;2022-09-14T20:29:24;24.50;99.90
35395;DHT22;21500;45.308;9.488;2022-09-14T20:31:51;24.50;99.90
35395;DHT22;21500;45.308;9.488;2022-09-14T20:34:20;24.50;99.90
35395;DHT22;21500;45.308;9.488;2022-09-14T20:36:50;24.40;99.90
35395;DHT22;21500;45.308;9.488;2022-09-14T20:39:17;24.30;99.90
35395;DHT22;21500;45.308;9.488;2022-09-14T20:41:43;24.10;99.90
35395;DHT22;21500;45.308;9.488;2022-09-14T20:44:09;24.10;99.90
35395;DHT22;21500;45.308;9.488;2022-09-14T20:46:58;24.10;99.90
35395;DHT22;21500;45.308;9.488;2022-09-14T20:49:29;23.90;99.90
35395;DHT22;21500;45.308;9.488;2022-09-14T20:51:55;23.90;99.90
35395;DHT22;21500;45.308;9.488;2022-09-14T20:54:23;23.90;99.90
35395;DHT22;21500;45.308;9.488;2022-09-14T20:56:49;23.90;99.90
35395;DHT22;21500;45.308;9.488;2022-09-14T20:59:17;23.90;99.90
35395;DHT22;21500;45.308;9.488;2022-09-14T21:01:44;23.90;99.90
35395;DHT22;21500;45.308;9.488;2022-09-14T21:04:19;23.80;99.90
35395;DHT22;21500;45.308;9.488;2022-09-14T21:06:47;23.90;99.90
35395;DHT22;21500;45.308;9.488;2022-09-14T21:09:15;23.90;99.90
35395;DHT22;21500;45.308;9.488;2022-09-14T21:11:43;23.70;99.90
35395;DHT22;21500;45.308;9.488;2022-09-14T21:14:14;23.60;99.90
35395;DHT22;21500;45.308;9.488;2022-09-14T21:16:43;23.60;99.90
35395;DHT22;21500;45.308;9.488;2022-09-14T21:19:15;23.60;99.90
35395;DHT22;21500;45.308;9.488;2022-09-14T21:21:42;23.50;99.90
35395;DHT22;21500;45.308;9.488;2022-09-14T21:24:09;23.50;99.90
35395;DHT22;21500;45.308;9.488;2022-09-14T21:26:46;23.50;99.90
35395;DHT22;21500;45.308;9.488;2022-09-14T21:29:15;23.40;99.90
35395;DHT22;21500;45.308;9.488;2022-09-14T21:31:42;23.40;99.90
35395;DHT22;21500;45.308;9.488;2022-09-14T21:34:10;23.30;99.90
35395;DHT22;21500;45.308;9.488;2022-09-14T21:36:45;23.10;99.90
35395;DHT22;21500;45.308;9.488;2022-09-14T21:39:18;23.20;99.90
35395;DHT22;21500;45.308;9.488;2022-09-14T21:41:44;23.30;99.90
35395;DHT22;21500;45.308;9.488;2022-09-14T21:44:12;23.30;99.90
35395;DHT22;21500;45.308;9.488;2022-09-14T21:46:40;23.40;99.90
35395;DHT22;21500;45.308;9.488;2022-09-14T21:49:08;23.40;99.90
35395;DHT22;21500;45.308;9.488;2022-09-14T21:51:37;23.30;99.90
35395;DHT22;21500;45.308;9.488;2022-09-14T21:54:05;22.90;99.90
35395;DHT22;21500;45.308;9.488;2022-09-14T21:56:33;22.80;99.90
35395;DHT22;21500;45.308;9.488;2022-09-14T21:59:02;23.00;99.90
35395;DHT22;21500;45.308;9.488;2022-09-14T22:01:29;23.00;99.90
35395;DHT22;21500;45.308;9.488;2022-09-14T22:03:56;23.00;99.90
35395;DHT22;21500;45.308;9.488;2022-09-14T22:06:24;23.00;99.90
35395;DHT22;21500;45.308;9.488;2022-09-14T22:08:54;23.10;99.90
35395;DHT22;21500;45.308;9.488;2022-09-14T22:11:39;23.10;99.90
35395;DHT22;21500;45.308;9.488;2022-09-14T22:14:11;23.10;99.90
35395;DHT22;21500;45.308;9.488;2022-09-14T22:16:38;23.10;99.90
35395;DHT22;21500;45.308;9.488;2022-09-14T22:19:07;23.10;99.90
35395;DHT22;21500;45.308;9.488;2022-09-14T22:21:37;23.10;99.90
35395;DHT22;21500;45.308;9.488;2022-09-14T22:24:06;23.00;99.90
35395;DHT22;21500;45.308;9.488;2022-09-14T22:26:33;23.00;99.90
35395;DHT22;21500;45.308;9.488;2022-09-14T22:28:59;22.90;99.90
35395;DHT22;21500;45.308;9.488;2022-09-14T22:31:26;22.90;99.90
35395;DHT22;21500;45.308;9.488;2022-09-14T22:33:54;23.00;99.90
35395;DHT22;21500;45.308;9.488;2022-09-14T22:36:20;23.10;99.90
35395;DHT22;21500;45.308;9.488;2022-09-14T22:38:46;23.10;99.90
35395;DHT22;21500;45.308;9.488;2022-09-14T22:41:15;23.20;99.90
35395;DHT22;21500;45.308;9.488;2022-09-14T22:43:43;23.20;99.90
35395;DHT22;21500;45.308;9.488;2022-09-14T22:46:09;23.10;99.90
35395;DHT22;21500;45.308;9.488;2022-09-14T22:48:36;23.00;99.90
35395;DHT22;21500;45.308;9.488;2022-09-14T22:51:04;23.00;99.90
35395;DHT22;21500;45.308;9.488;2022-09-14T22:53:31;23.00;99.90
35395;DHT22;21500;45.308;9.488;2022-09-14T22:55:57;23.00;99.90
35395;DHT22;21500;45.308;9.488;2022-09-14T22:58:25;23.00;99.90
35395;DHT22;21500;45.308;9.488;2022-09-14T23:00:53;23.00;99.90
35395;DHT22;21500;45.308;9.488;2022-09-14T23:03:19;23.10;99.90
35395;DHT22;21500;45.308;9.488;2022-09-14T23:05:53;23.00;99.90
35395;DHT22;21500;45.308;9.488;2022-09-14T23:08:25;22.80;99.90
35395;DHT22;21500;45.308;9.488;2022-09-14T23:10:52;22.70;99.90
35395;DHT22;21500;45.308;9.488;2022-09-14T23:13:18;22.70;99.90
35395;DHT22;21500;45.308;9.488;2022-09-14T23:15:44;22.70;99.90
35395;DHT22;21500;45.308;9.488;2022-09-14T23:18:11;22.80;99.90
35395;DHT22;21500;45.308;9.488;2022-09-14T23:20:38;22.80;99.90
35395;DHT22;21500;45.308;9.488;2022-09-14T23:23:04;22.70;99.90
35395;DHT22;21500;45.308;9.488;2022-09-14T23:25:36;22.80;99.90
35395;DHT22;21500;45.308;9.488;2022-09-14T23:28:04;22.70;99.90
35395;DHT22;21500;45.308;9.488;2022-09-14T23:30:30;22.70;99.90
35395;DHT22;21500;45.308;9.488;2022-09-14T23:32:57;22.70;99.90
35395;DHT22;21500;45.308;9.488;2022-09-14T23:35:23;22.70;99.90
35395;DHT22;21500;45.308;9.488;2022-09-14T23:37:49;22.70;99.90
35395;DHT22;21500;45.308;9.488;2022-09-14T23:40:15;22.70;99.90
35395;DHT22;21500;45.308;9.488;2022-09-14T23:42:43;22.60;99.90
35395;DHT22;21500;45.308;9.488;2022-09-14T23:45:09;22.70;99.90
35395;DHT22;21500;45.308;9.488;2022-09-14T23:47:35;22.70;99.90
35395;DHT22;21500;45.308;9.488;2022-09-14T23:50:01;22.70;99.90
35395;DHT22;21500;45.308;9.488;2022-09-14T23:52:26;22.70;99.90
35395;DHT22;21500;45.308;9.488;2022-09-14T23:54:52;22.70;99.90
35395;DHT22;21500;45.308;9.488;2022-09-14T23:57:18;22.70;99.90
35395;DHT22;21500;45.308;9.488;2022-09-14T23:59:44;22.70;99.90
